sensor_id;sensor_type;location;lat;lon;timestamp;pressure;altitude;pressure_sealevel;temperature;humidity
38806;BME280;25635;51.146;17.162;2022-12-29T00:00:08;99840.22;;;5.36;77.77
38806;BME280;25635;51.146;17.162;2022-12-29T00:02:39;99838.06;;;5.36;77.75
38806;BME280;25635;51.146;17.162;2022-12-29T00:05:06;99841.95;;;5.36;77.72
38806;BME280;25635;51.146;17.162;2022-12-29T00:07:32;99844.53;;;5.37;77.70
38806;BME280;25635;51.146;17.162;2022-12-29T00:09:59;99838.92;;;5.36;77.86
38806;BME280;25635;51.146;17.162;2022-12-29T00:12:25;99838.06;;;5.36;77.79
38806;BME280;25635;51.146;17.162;2022-12-29T00:14:53;99841.94;;;5.37;77.75
38806;BME280;25635;51.146;17.162;2022-12-29T00:17:37;99841.94;;;5.37;77.65
38806;BME280;25635;51.146;17.162;2022-12-29T00:20:04;99835.45;;;5.37;77.63
38806;BME280;25635;51.146;17.162;2022-12-29T00:22:49;99826.83;;;5.38;77.68
38806;BME280;25635;51.146;17.162;2022-12-29T00:25:35;99820.37;;;5.40;77.55
38806;BME280;25635;51.146;17.162;2022-12-29T00:28:20;99823.41;;;5.42;77.34
38806;BME280;25635;51.146;17.162;2022-12-29T00:31:07;99813.45;;;5.43;77.32
38806;BME280;25635;51.146;17.162;2022-12-29T00:33:54;99820.39;;;5.44;77.18
38806;BME280;25635;51.146;17.162;2022-12-29T00:36:40;99826.00;;;5.45;76.95
38806;BME280;25635;51.146;17.162;2022-12-29T00:39:14;99819.97;;;5.46;77.00
38806;BME280;25635;51.146;17.162;2022-12-29T00:42:05;99810.02;;;5.47;76.97
38806;BME280;25635;51.146;17.162;2022-12-29T00:44:50;99798.80;;;5.48;76.98
38806;BME280;25635;51.146;17.162;2022-12-29T00:47:17;99791.45;;;5.49;77.04
38806;BME280;25635;51.146;17.162;2022-12-29T00:49:43;99786.30;;;5.53;77.03
38806;BME280;25635;51.146;17.162;2022-12-29T00:52:13;99784.12;;;5.54;76.78
38806;BME280;25635;51.146;17.162;2022-12-29T00:54:40;99788.05;;;5.57;76.44
38806;BME280;25635;51.146;17.162;2022-12-29T00:57:09;99777.25;;;5.59;76.82
38806;BME280;25635;51.146;17.162;2022-12-29T00:59:40;99776.36;;;5.58;76.84
38806;BME280;25635;51.146;17.162;2022-12-29T01:02:08;99783.28;;;5.58;76.91
38806;BME280;25635;51.146;17.162;2022-12-29T01:04:34;99778.11;;;5.59;76.82
38806;BME280;25635;51.146;17.162;2022-12-29T01:07:01;99777.23;;;5.60;76.81
38806;BME280;25635;51.146;17.162;2022-12-29T01:09:27;99772.52;;;5.63;76.64
38806;BME280;25635;51.146;17.162;2022-12-29T01:12:11;99767.33;;;5.66;76.72
38806;BME280;25635;51.146;17.162;2022-12-29T01:14:38;99764.31;;;5.68;76.60
38806;BME280;25635;51.146;17.162;2022-12-29T01:17:05;99766.48;;;5.70;76.73
38806;BME280;25635;51.146;17.162;2022-12-29T01:19:32;99758.28;;;5.69;76.71
38806;BME280;25635;51.146;17.162;2022-12-29T01:21:58;99763.45;;;5.71;76.69
38806;BME280;25635;51.146;17.162;2022-12-29T01:24:24;99771.67;;;5.70;76.70
38806;BME280;25635;51.146;17.162;2022-12-29T01:26:52;99768.20;;;5.68;76.58
38806;BME280;25635;51.146;17.162;2022-12-29T01:29:19;99767.78;;;5.70;76.58
38806;BME280;25635;51.146;17.162;2022-12-29T01:31:46;99761.33;;;5.73;76.62
38806;BME280;25635;51.146;17.162;2022-12-29T01:34:12;99759.61;;;5.75;76.66
38806;BME280;25635;51.146;17.162;2022-12-29T01:36:39;99750.94;;;5.75;76.58
38806;BME280;25635;51.146;17.162;2022-12-29T01:39:05;99747.48;;;5.74;76.62
38806;BME280;25635;51.146;17.162;2022-12-29T01:41:31;99743.59;;;5.71;76.68
38806;BME280;25635;51.146;17.162;2022-12-29T01:43:59;99746.16;;;5.68;76.73
38806;BME280;25635;51.146;17.162;2022-12-29T01:46:36;99744.42;;;5.65;76.75
38806;BME280;25635;51.146;17.162;2022-12-29T01:49:12;99749.58;;;5.62;76.80
38806;BME280;25635;51.146;17.162;2022-12-29T01:51:48;99747.84;;;5.60;76.68
38806;BME280;25635;51.146;17.162;2022-12-29T01:57:13;99746.12;;;5.59;76.67
38806;BME280;25635;51.146;17.162;2022-12-29T01:59:49;99737.45;;;5.58;76.83
38806;BME280;25635;51.146;17.162;2022-12-29T02:02:14;99737.47;;;5.57;76.69
38806;BME280;25635;51.146;17.162;2022-12-29T02:04:41;99733.98;;;5.56;76.88
38806;BME280;25635;51.146;17.162;2022-12-29T02:07:20;99731.38;;;5.53;76.84
38806;BME280;25635;51.146;17.162;2022-12-29T02:09:48;99724.45;;;5.49;76.83
38806;BME280;25635;51.146;17.162;2022-12-29T02:12:18;99717.52;;;5.46;76.89
38806;BME280;25635;51.146;17.162;2022-12-29T02:14:47;99718.38;;;5.44;76.97
38806;BME280;25635;51.146;17.162;2022-12-29T02:17:54;99709.29;;;5.42;77.03
38806;BME280;25635;51.146;17.162;2022-12-29T02:20:50;99706.66;;;5.39;76.96
38806;BME280;25635;51.146;17.162;2022-12-29T02:23:31;99699.74;;;5.37;77.02
38806;BME280;25635;51.146;17.162;2022-12-29T02:26:27;99704.51;;;5.36;76.95
38806;BME280;25635;51.146;17.162;2022-12-29T02:32:12;99700.59;;;5.34;77.13
38806;BME280;25635;51.146;17.162;2022-12-29T02:35:09;99699.73;;;5.32;76.98
38806;BME280;25635;51.146;17.162;2022-12-29T02:37:52;99693.66;;;5.30;76.94
38806;BME280;25635;51.146;17.162;2022-12-29T02:43:31;99694.08;;;5.25;76.91
38806;BME280;25635;51.146;17.162;2022-12-29T02:51:14;99679.80;;;5.23;76.80
38806;BME280;25635;51.146;17.162;2022-12-29T02:53:44;99681.52;;;5.24;76.65
38806;BME280;25635;51.146;17.162;2022-12-29T02:56:29;99677.65;;;5.23;76.81
38806;BME280;25635;51.146;17.162;2022-12-29T02:58:56;99670.29;;;5.21;76.69
38806;BME280;25635;51.146;17.162;2022-12-29T03:04:53;99673.73;;;5.17;76.77
38806;BME280;25635;51.146;17.162;2022-12-29T03:13:52;99673.27;;;5.16;76.73
38806;BME280;25635;51.146;17.162;2022-12-29T03:16:40;99677.17;;;5.17;76.75
38806;BME280;25635;51.146;17.162;2022-12-29T03:19:19;99672.88;;;5.21;76.66
38806;BME280;25635;51.146;17.162;2022-12-29T03:21:57;99674.18;;;5.21;76.65
38806;BME280;25635;51.146;17.162;2022-12-29T03:24:56;99670.27;;;5.19;76.66
38806;BME280;25635;51.146;17.162;2022-12-29T03:27:34;99668.98;;;5.22;76.64
38806;BME280;25635;51.146;17.162;2022-12-29T03:30:04;99670.72;;;5.22;76.60
38806;BME280;25635;51.146;17.162;2022-12-29T03:32:39;99669.88;;;5.23;76.56
38806;BME280;25635;51.146;17.162;2022-12-29T03:35:11;99664.67;;;5.24;76.50
38806;BME280;25635;51.146;17.162;2022-12-29T03:37:43;99674.18;;;5.27;76.62
38806;BME280;25635;51.146;17.162;2022-12-29T03:40:13;99669.02;;;5.28;76.67
38806;BME280;25635;51.146;17.162;2022-12-29T03:42:48;99677.23;;;5.31;76.76
38806;BME280;25635;51.146;17.162;2022-12-29T03:45:20;99684.15;;;5.31;76.69
38806;BME280;25635;51.146;17.162;2022-12-29T03:47:51;99669.91;;;5.32;76.88
38806;BME280;25635;51.146;17.162;2022-12-29T03:50:21;99672.06;;;5.33;77.23
38806;BME280;25635;51.146;17.162;2022-12-29T03:52:47;99660.83;;;5.32;77.50
38806;BME280;25635;51.146;17.162;2022-12-29T03:55:14;99661.27;;;5.32;77.32
38806;BME280;25635;51.146;17.162;2022-12-29T03:57:40;99660.39;;;5.33;77.27
38806;BME280;25635;51.146;17.162;2022-12-29T04:00:07;99663.44;;;5.34;77.54
38806;BME280;25635;51.146;17.162;2022-12-29T04:02:34;99662.98;;;5.33;77.38
38806;BME280;25635;51.146;17.162;2022-12-29T04:05:00;99665.58;;;5.33;77.45
38806;BME280;25635;51.146;17.162;2022-12-29T04:07:29;99663.86;;;5.32;77.50
38806;BME280;25635;51.146;17.162;2022-12-29T04:10:06;99668.59;;;5.31;77.58
38806;BME280;25635;51.146;17.162;2022-12-29T04:12:39;99659.53;;;5.32;77.29
38806;BME280;25635;51.146;17.162;2022-12-29T04:15:08;99661.69;;;5.33;77.48
38806;BME280;25635;51.146;17.162;2022-12-29T04:17:35;99659.09;;;5.33;77.45
38806;BME280;25635;51.146;17.162;2022-12-29T04:20:01;99652.17;;;5.33;77.40
38806;BME280;25635;51.146;17.162;2022-12-29T04:22:46;99640.95;;;5.34;77.52
38806;BME280;25635;51.146;17.162;2022-12-29T04:25:12;99650.45;;;5.32;77.54
38806;BME280;25635;51.146;17.162;2022-12-29T04:27:38;99643.97;;;5.32;77.04
38806;BME280;25635;51.146;17.162;2022-12-29T04:30:05;99641.39;;;5.34;77.00
38806;BME280;25635;51.146;17.162;2022-12-29T04:32:32;99633.59;;;5.35;76.90
38806;BME280;25635;51.146;17.162;2022-12-29T04:34:58;99630.58;;;5.37;76.89
38806;BME280;25635;51.146;17.162;2022-12-29T04:37:24;99630.17;;;5.38;76.78
38806;BME280;25635;51.146;17.162;2022-12-29T04:39:50;99624.97;;;5.39;76.51
38806;BME280;25635;51.146;17.162;2022-12-29T04:42:17;99623.25;;;5.38;76.41
38806;BME280;25635;51.146;17.162;2022-12-29T04:44:43;99625.39;;;5.37;76.54
38806;BME280;25635;51.146;17.162;2022-12-29T04:47:12;99622.40;;;5.38;76.54
38806;BME280;25635;51.146;17.162;2022-12-29T04:49:44;99631.89;;;5.39;76.04
38806;BME280;25635;51.146;17.162;2022-12-29T04:52:13;99631.05;;;5.40;76.33
38806;BME280;25635;51.146;17.162;2022-12-29T04:54:40;99633.63;;;5.41;76.05
38806;BME280;25635;51.146;17.162;2022-12-29T04:57:10;99629.31;;;5.43;76.39
38806;BME280;25635;51.146;17.162;2022-12-29T04:59:34;99629.77;;;5.44;76.18
38806;BME280;25635;51.146;17.162;2022-12-29T05:02:00;99635.39;;;5.44;76.04
38806;BME280;25635;51.146;17.162;2022-12-29T05:04:26;99625.42;;;5.43;76.15
38806;BME280;25635;51.146;17.162;2022-12-29T05:06:53;99625.02;;;5.44;76.04
38806;BME280;25635;51.146;17.162;2022-12-29T05:09:19;99623.30;;;5.46;76.02
38806;BME280;25635;51.146;17.162;2022-12-29T05:11:45;99629.34;;;5.46;75.91
38806;BME280;25635;51.146;17.162;2022-12-29T05:14:12;99626.32;;;5.48;76.05
38806;BME280;25635;51.146;17.162;2022-12-29T05:16:38;99619.85;;;5.50;75.74
38806;BME280;25635;51.146;17.162;2022-12-29T05:19:05;99610.34;;;5.51;75.80
38806;BME280;25635;51.146;17.162;2022-12-29T05:21:31;99615.94;;;5.52;75.16
38806;BME280;25635;51.146;17.162;2022-12-29T05:23:57;99608.61;;;5.53;75.59
38806;BME280;25635;51.146;17.162;2022-12-29T05:26:23;99602.13;;;5.53;75.61
38806;BME280;25635;51.146;17.162;2022-12-29T05:28:49;99600.83;;;5.53;75.60
38806;BME280;25635;51.146;17.162;2022-12-29T05:31:15;99600.81;;;5.54;75.66
38806;BME280;25635;51.146;17.162;2022-12-29T05:33:41;99596.52;;;5.55;75.62
38806;BME280;25635;51.146;17.162;2022-12-29T05:36:08;99596.51;;;5.58;74.66
38806;BME280;25635;51.146;17.162;2022-12-29T05:38:35;99591.75;;;5.60;75.38
38806;BME280;25635;51.146;17.162;2022-12-29T05:41:01;99592.63;;;5.64;75.08
38806;BME280;25635;51.146;17.162;2022-12-29T05:43:28;99590.90;;;5.64;74.87
38806;BME280;25635;51.146;17.162;2022-12-29T05:45:55;99589.17;;;5.66;74.81
38806;BME280;25635;51.146;17.162;2022-12-29T05:48:22;99580.11;;;5.68;74.94
38806;BME280;25635;51.146;17.162;2022-12-29T05:50:49;99580.11;;;5.68;75.08
38806;BME280;25635;51.146;17.162;2022-12-29T05:53:16;99580.11;;;5.68;74.22
38806;BME280;25635;51.146;17.162;2022-12-29T05:55:46;99580.53;;;5.71;74.59
38806;BME280;25635;51.146;17.162;2022-12-29T05:58:15;99570.16;;;5.71;74.57
38806;BME280;25635;51.146;17.162;2022-12-29T06:00:42;99579.67;;;5.70;73.75
38806;BME280;25635;51.146;17.162;2022-12-29T06:03:08;99580.98;;;5.70;74.28
38806;BME280;25635;51.146;17.162;2022-12-29T06:05:35;99578.38;;;5.70;73.43
38806;BME280;25635;51.146;17.162;2022-12-29T06:08:02;99577.52;;;5.69;73.65
38806;BME280;25635;51.146;17.162;2022-12-29T06:10:28;99580.98;;;5.70;73.69
38806;BME280;25635;51.146;17.162;2022-12-29T06:12:56;99577.08;;;5.70;73.52
38806;BME280;25635;51.146;17.162;2022-12-29T06:15:22;99576.66;;;5.72;72.52
38806;BME280;25635;51.146;17.162;2022-12-29T06:17:49;99561.08;;;5.71;73.11
38806;BME280;25635;51.146;17.162;2022-12-29T06:20:15;99571.47;;;5.77;72.40
38806;BME280;25635;51.146;17.162;2022-12-29T06:22:41;99579.67;;;5.79;72.92
38806;BME280;25635;51.146;17.162;2022-12-29T06:25:08;99569.32;;;5.78;72.63
38806;BME280;25635;51.146;17.162;2022-12-29T06:27:34;99568.88;;;5.78;72.73
38806;BME280;25635;51.146;17.162;2022-12-29T06:30:01;99568.02;;;5.78;73.23
38806;BME280;25635;51.146;17.162;2022-12-29T06:32:27;99569.32;;;5.78;72.77
38806;BME280;25635;51.146;17.162;2022-12-29T06:34:54;99571.48;;;5.78;72.99
38806;BME280;25635;51.146;17.162;2022-12-29T06:37:20;99574.08;;;5.80;73.08
38806;BME280;25635;51.146;17.162;2022-12-29T06:39:46;99561.97;;;5.80;72.99
38806;BME280;25635;51.146;17.162;2022-12-29T06:42:13;99559.78;;;5.81;73.38
38806;BME280;25635;51.146;17.162;2022-12-29T06:44:39;99567.16;;;5.80;73.01
38806;BME280;25635;51.146;17.162;2022-12-29T06:47:05;99568.89;;;5.80;73.15
38806;BME280;25635;51.146;17.162;2022-12-29T06:49:32;99577.52;;;5.79;72.90
38806;BME280;25635;51.146;17.162;2022-12-29T06:51:58;99571.48;;;5.78;73.15
38806;BME280;25635;51.146;17.162;2022-12-29T06:54:26;99575.37;;;5.78;72.97
38806;BME280;25635;51.146;17.162;2022-12-29T06:56:53;99577.98;;;5.80;73.30
38806;BME280;25635;51.146;17.162;2022-12-29T06:59:19;99587.91;;;5.80;73.35
38806;BME280;25635;51.146;17.162;2022-12-29T07:01:45;99581.87;;;5.80;73.08
38806;BME280;25635;51.146;17.162;2022-12-29T07:04:11;99581.00;;;5.82;73.08
38806;BME280;25635;51.146;17.162;2022-12-29T07:06:37;99586.19;;;5.82;73.35
38806;BME280;25635;51.146;17.162;2022-12-29T07:09:04;99578.84;;;5.82;72.84
38806;BME280;25635;51.146;17.162;2022-12-29T07:11:30;99583.59;;;5.82;73.26
38806;BME280;25635;51.146;17.162;2022-12-29T07:13:56;99579.70;;;5.82;73.15
38806;BME280;25635;51.146;17.162;2022-12-29T07:16:22;99584.02;;;5.83;72.68
38806;BME280;25635;51.146;17.162;2022-12-29T07:18:48;99583.17;;;5.86;72.39
38806;BME280;25635;51.146;17.162;2022-12-29T07:21:14;99588.78;;;5.87;72.64
38806;BME280;25635;51.146;17.162;2022-12-29T07:23:41;99585.75;;;5.87;72.44
38806;BME280;25635;51.146;17.162;2022-12-29T07:26:09;99590.09;;;5.88;71.64
38806;BME280;25635;51.146;17.162;2022-12-29T07:28:37;99587.92;;;5.91;72.58
38806;BME280;25635;51.146;17.162;2022-12-29T07:31:05;99591.39;;;5.93;72.71
38806;BME280;25635;51.146;17.162;2022-12-29T07:33:32;99582.75;;;5.94;72.72
38806;BME280;25635;51.146;17.162;2022-12-29T07:35:59;99586.66;;;5.96;72.60
38806;BME280;25635;51.146;17.162;2022-12-29T07:38:25;99587.12;;;5.98;71.74
38806;BME280;25635;51.146;17.162;2022-12-29T07:40:56;99591.00;;;6.01;72.37
38806;BME280;25635;51.146;17.162;2022-12-29T07:43:22;99597.48;;;6.06;72.78
38806;BME280;25635;51.146;17.162;2022-12-29T07:45:48;99587.11;;;6.07;72.34
38806;BME280;25635;51.146;17.162;2022-12-29T07:48:14;99592.31;;;6.09;72.71
38806;BME280;25635;51.146;17.162;2022-12-29T07:50:40;99587.98;;;6.11;72.32
38806;BME280;25635;51.146;17.162;2022-12-29T07:53:08;99584.06;;;6.13;72.78
38806;BME280;25635;51.146;17.162;2022-12-29T07:55:34;99590.16;;;6.13;72.33
38806;BME280;25635;51.146;17.162;2022-12-29T07:58:00;99595.32;;;6.15;72.55
38806;BME280;25635;51.146;17.162;2022-12-29T08:00:27;99585.83;;;6.15;72.65
38806;BME280;25635;51.146;17.162;2022-12-29T08:02:53;99584.96;;;6.19;72.62
38806;BME280;25635;51.146;17.162;2022-12-29T08:05:20;99595.77;;;6.22;72.98
38806;BME280;25635;51.146;17.162;2022-12-29T08:07:46;99591.89;;;6.23;72.90
38806;BME280;25635;51.146;17.162;2022-12-29T08:10:14;99590.56;;;6.25;72.94
38806;BME280;25635;51.146;17.162;2022-12-29T08:12:41;99595.33;;;6.27;72.63
38806;BME280;25635;51.146;17.162;2022-12-29T08:15:10;99597.52;;;6.27;72.98
38806;BME280;25635;51.146;17.162;2022-12-29T08:17:37;99599.67;;;6.28;72.91
38806;BME280;25635;51.146;17.162;2022-12-29T08:20:04;99600.53;;;6.30;72.28
38806;BME280;25635;51.146;17.162;2022-12-29T08:22:31;99602.67;;;6.34;72.60
38806;BME280;25635;51.146;17.162;2022-12-29T08:24:57;99597.06;;;6.37;72.84
38806;BME280;25635;51.146;17.162;2022-12-29T08:27:24;99601.39;;;6.43;72.92
38806;BME280;25635;51.146;17.162;2022-12-29T08:29:51;99600.97;;;6.46;72.91
38806;BME280;25635;51.146;17.162;2022-12-29T08:32:19;99609.61;;;6.52;72.58
38806;BME280;25635;51.146;17.162;2022-12-29T08:34:46;99611.78;;;6.55;72.67
38806;BME280;25635;51.146;17.162;2022-12-29T08:37:12;99618.27;;;6.60;72.40
38806;BME280;25635;51.146;17.162;2022-12-29T08:39:38;99616.09;;;6.64;72.35
38806;BME280;25635;51.146;17.162;2022-12-29T08:42:04;99615.23;;;6.69;71.01
38806;BME280;25635;51.146;17.162;2022-12-29T08:44:30;99613.91;;;6.74;72.33
38806;BME280;25635;51.146;17.162;2022-12-29T08:46:57;99599.61;;;6.80;71.74
38806;BME280;25635;51.146;17.162;2022-12-29T08:49:23;99605.66;;;6.88;72.02
38806;BME280;25635;51.146;17.162;2022-12-29T08:51:49;99594.80;;;6.92;72.06
38806;BME280;25635;51.146;17.162;2022-12-29T08:54:15;99596.09;;;7.01;72.35
38806;BME280;25635;51.146;17.162;2022-12-29T08:56:41;99602.98;;;7.10;71.42
38806;BME280;25635;51.146;17.162;2022-12-29T08:59:07;99610.32;;;7.15;71.68
38806;BME280;25635;51.146;17.162;2022-12-29T09:01:33;99611.19;;;7.20;72.20
38806;BME280;25635;51.146;17.162;2022-12-29T09:04:02;99615.06;;;7.23;71.15
38806;BME280;25635;51.146;17.162;2022-12-29T09:06:28;99611.17;;;7.26;71.33
38806;BME280;25635;51.146;17.162;2022-12-29T09:08:54;99616.79;;;7.30;71.59
38806;BME280;25635;51.146;17.162;2022-12-29T09:11:23;99622.86;;;7.34;71.48
38806;BME280;25635;51.146;17.162;2022-12-29T09:13:50;99621.53;;;7.39;71.87
38806;BME280;25635;51.146;17.162;2022-12-29T09:16:20;99624.11;;;7.45;69.85
38806;BME280;25635;51.146;17.162;2022-12-29T09:18:47;99617.98;;;7.50;71.55
38806;BME280;25635;51.146;17.162;2022-12-29T09:21:13;99619.29;;;7.55;71.33
38806;BME280;25635;51.146;17.162;2022-12-29T09:23:40;99617.10;;;7.59;71.66
38806;BME280;25635;51.146;17.162;2022-12-29T09:26:06;99604.91;;;7.64;71.27
38806;BME280;25635;51.146;17.162;2022-12-29T09:28:33;99613.13;;;7.68;71.21
38806;BME280;25635;51.146;17.162;2022-12-29T09:31:00;99611.39;;;7.72;71.30
38806;BME280;25635;51.146;17.162;2022-12-29T09:33:27;99603.55;;;7.75;71.05
38806;BME280;25635;51.146;17.162;2022-12-29T09:35:56;99614.81;;;7.77;70.39
38806;BME280;25635;51.146;17.162;2022-12-29T09:38:25;99614.37;;;7.78;70.35
38806;BME280;25635;51.146;17.162;2022-12-29T09:40:59;99621.73;;;7.81;70.58
38806;BME280;25635;51.146;17.162;2022-12-29T09:46:39;99611.70;;;7.91;70.66
38806;BME280;25635;51.146;17.162;2022-12-29T09:51:53;99613.81;;;8.01;70.75
38806;BME280;25635;51.146;17.162;2022-12-29T09:57:19;99609.41;;;8.09;70.73
38806;BME280;25635;51.146;17.162;2022-12-29T09:59:55;99606.32;;;8.16;70.33
38806;BME280;25635;51.146;17.162;2022-12-29T10:11:29;99581.03;;;8.27;70.96
38806;BME280;25635;51.146;17.162;2022-12-29T10:20:00;99575.73;;;8.38;70.57
38806;BME280;25635;51.146;17.162;2022-12-29T10:22:35;99580.95;;;8.41;69.76
38806;BME280;25635;51.146;17.162;2022-12-29T10:25:22;99560.52;;;8.44;70.39
38806;BME280;25635;51.146;17.162;2022-12-29T10:27:53;99567.88;;;8.46;69.43
38806;BME280;25635;51.146;17.162;2022-12-29T10:30:22;99572.20;;;8.48;70.08
38806;BME280;25635;51.146;17.162;2022-12-29T10:33:01;99564.36;;;8.51;70.57
38806;BME280;25635;51.146;17.162;2022-12-29T10:35:37;99564.31;;;8.55;70.64
38806;BME280;25635;51.146;17.162;2022-12-29T10:43:47;99558.58;;;8.66;70.52
38806;BME280;25635;51.146;17.162;2022-12-29T10:46:25;99565.45;;;8.70;70.52
38806;BME280;25635;51.146;17.162;2022-12-29T10:48:49;99558.48;;;8.73;70.56
38806;BME280;25635;51.146;17.162;2022-12-29T10:51:20;99550.19;;;8.77;70.78
38806;BME280;25635;51.146;17.162;2022-12-29T10:54:03;99552.73;;;8.83;70.75
38806;BME280;25635;51.146;17.162;2022-12-29T10:56:50;99547.45;;;8.88;70.53
38806;BME280;25635;51.146;17.162;2022-12-29T10:59:25;99555.67;;;8.92;69.97
38806;BME280;25635;51.146;17.162;2022-12-29T11:04:55;99540.74;;;9.03;69.84
38806;BME280;25635;51.146;17.162;2022-12-29T11:07:31;99541.56;;;9.10;69.45
38806;BME280;25635;51.146;17.162;2022-12-29T11:10:29;99550.61;;;9.16;68.92
38806;BME280;25635;51.146;17.162;2022-12-29T11:12:59;99547.50;;;9.20;68.28
38806;BME280;25635;51.146;17.162;2022-12-29T11:15:26;99541.76;;;9.26;68.03
38806;BME280;25635;51.146;17.162;2022-12-29T11:17:57;99541.27;;;9.31;67.84
38806;BME280;25635;51.146;17.162;2022-12-29T11:23:21;99532.44;;;9.42;67.78
38806;BME280;25635;51.146;17.162;2022-12-29T11:28:39;99529.67;;;9.52;68.53
38806;BME280;25635;51.146;17.162;2022-12-29T11:31:08;99522.25;;;9.53;68.76
38806;BME280;25635;51.146;17.162;2022-12-29T11:33:37;99525.70;;;9.56;69.11
38806;BME280;25635;51.146;17.162;2022-12-29T11:36:13;99525.70;;;9.56;69.52
38806;BME280;25635;51.146;17.162;2022-12-29T11:38:46;99517.02;;;9.55;69.03
38806;BME280;25635;51.146;17.162;2022-12-29T11:41:21;99518.31;;;9.55;68.62
38806;BME280;25635;51.146;17.162;2022-12-29T11:43:49;99513.95;;;9.56;68.06
38806;BME280;25635;51.146;17.162;2022-12-29T11:46:29;99509.16;;;9.57;68.29
38806;BME280;25635;51.146;17.162;2022-12-29T11:48:58;99509.54;;;9.61;68.94
38806;BME280;25635;51.146;17.162;2022-12-29T11:51:41;99513.40;;;9.64;68.43
38806;BME280;25635;51.146;17.162;2022-12-29T11:54:00;99508.61;;;9.65;68.36
38806;BME280;25635;51.146;17.162;2022-12-29T11:56:42;99505.55;;;9.65;68.73
38806;BME280;25635;51.146;17.162;2022-12-29T12:02:25;99511.14;;;9.69;68.85
38806;BME280;25635;51.146;17.162;2022-12-29T12:05:17;99516.30;;;9.72;68.60
38806;BME280;25635;51.146;17.162;2022-12-29T12:07:47;99514.13;;;9.73;68.89
38806;BME280;25635;51.146;17.162;2022-12-29T12:10:32;99511.05;;;9.76;69.11
38806;BME280;25635;51.146;17.162;2022-12-29T12:13:06;99507.54;;;9.77;68.67
38806;BME280;25635;51.146;17.162;2022-12-29T12:15:52;99503.20;;;9.77;68.48
38806;BME280;25635;51.146;17.162;2022-12-29T12:18:45;99494.53;;;9.75;67.90
38806;BME280;25635;51.146;17.162;2022-12-29T12:21:36;99496.70;;;9.74;68.27
38806;BME280;25635;51.146;17.162;2022-12-29T12:33:28;99490.78;;;9.64;68.64
38806;BME280;25635;51.146;17.162;2022-12-29T12:35:35;99490.41;;;9.60;68.48
38806;BME280;25635;51.146;17.162;2022-12-29T12:38:26;99486.54;;;9.56;68.57
38806;BME280;25635;51.146;17.162;2022-12-29T12:44:31;99484.94;;;9.47;68.76
38806;BME280;25635;51.146;17.162;2022-12-29T12:50:18;99491.22;;;9.35;68.45
38806;BME280;25635;51.146;17.162;2022-12-29T12:59:22;99482.72;;;9.21;68.56
38806;BME280;25635;51.146;17.162;2022-12-29T13:08:19;99479.73;;;9.15;68.70
38806;BME280;25635;51.146;17.162;2022-12-29T13:16:53;99497.22;;;9.10;69.45
38806;BME280;25635;51.146;17.162;2022-12-29T13:19:48;99492.88;;;9.07;69.68
38806;BME280;25635;51.146;17.162;2022-12-29T13:25:50;99491.65;;;9.01;70.05
38806;BME280;25635;51.146;17.162;2022-12-29T13:28:37;99491.25;;;8.99;70.12
38806;BME280;25635;51.146;17.162;2022-12-29T13:31:20;99502.16;;;8.95;70.13
38806;BME280;25635;51.146;17.162;2022-12-29T13:36:45;99494.44;;;8.89;70.16
38806;BME280;25635;51.146;17.162;2022-12-29T13:39:27;99497.91;;;8.88;70.66
38806;BME280;25635;51.146;17.162;2022-12-29T13:42:02;99495.31;;;8.86;70.02
38806;BME280;25635;51.146;17.162;2022-12-29T13:44:45;99499.20;;;8.89;70.50
38806;BME280;25635;51.146;17.162;2022-12-29T13:50:10;99510.87;;;8.96;70.32
38806;BME280;25635;51.146;17.162;2022-12-29T13:55:58;99512.44;;;9.07;70.31
38806;BME280;25635;51.146;17.162;2022-12-29T13:58:54;99517.17;;;9.12;70.01
38806;BME280;25635;51.146;17.162;2022-12-29T14:04:30;99533.28;;;9.10;70.27
38806;BME280;25635;51.146;17.162;2022-12-29T14:07:05;99526.37;;;9.08;70.54
38806;BME280;25635;51.146;17.162;2022-12-29T14:09:49;99533.77;;;9.05;70.46
38806;BME280;25635;51.146;17.162;2022-12-29T14:17:42;99534.80;;;8.93;68.98
38806;BME280;25635;51.146;17.162;2022-12-29T14:20:21;99540.48;;;8.90;69.29
38806;BME280;25635;51.146;17.162;2022-12-29T14:25:56;99545.81;;;8.81;69.41
38806;BME280;25635;51.146;17.162;2022-12-29T14:28:28;99544.13;;;8.73;68.85
38806;BME280;25635;51.146;17.162;2022-12-29T14:31:00;99544.59;;;8.70;69.45
38806;BME280;25635;51.146;17.162;2022-12-29T14:33:34;99544.66;;;8.65;68.79
38806;BME280;25635;51.146;17.162;2022-12-29T14:37:20;99542.09;;;8.62;68.81
38806;BME280;25635;51.146;17.162;2022-12-29T14:38:51;99537.34;;;8.60;69.27
38806;BME280;25635;51.146;17.162;2022-12-29T14:41:40;99535.19;;;8.58;69.15
38806;BME280;25635;51.146;17.162;2022-12-29T14:44:17;99536.95;;;8.56;69.38
38806;BME280;25635;51.146;17.162;2022-12-29T14:49:27;99542.61;;;8.54;69.40
38806;BME280;25635;51.146;17.162;2022-12-29T14:52:07;99529.64;;;8.49;69.58
38806;BME280;25635;51.146;17.162;2022-12-29T14:57:22;99534.89;;;8.40;69.73
38806;BME280;25635;51.146;17.162;2022-12-29T15:05:59;99534.70;;;8.15;69.86
38806;BME280;25635;51.146;17.162;2022-12-29T15:08:37;99540.00;;;8.04;69.68
38806;BME280;25635;51.146;17.162;2022-12-29T15:11:21;99536.15;;;7.95;70.03
38806;BME280;25635;51.146;17.162;2022-12-29T15:13:50;99536.23;;;7.87;69.88
38806;BME280;25635;51.146;17.162;2022-12-29T15:16:32;99544.09;;;7.78;69.68
38806;BME280;25635;51.146;17.162;2022-12-29T15:19:01;99542.86;;;7.70;70.03
38806;BME280;25635;51.146;17.162;2022-12-29T15:21:37;99546.80;;;7.61;70.02
38806;BME280;25635;51.146;17.162;2022-12-29T15:24:03;99548.59;;;7.53;70.32
38806;BME280;25635;51.146;17.162;2022-12-29T15:26:50;99552.11;;;7.45;70.32
38806;BME280;25635;51.146;17.162;2022-12-29T15:29:32;99556.91;;;7.40;70.20
38806;BME280;25635;51.146;17.162;2022-12-29T15:34:54;99554.80;;;7.25;70.57
38806;BME280;25635;51.146;17.162;2022-12-29T15:37:33;99557.43;;;7.21;70.45
38806;BME280;25635;51.146;17.162;2022-12-29T15:40:03;99553.97;;;7.17;70.51